sensor_id;sensor_type;location;lat;lon;timestamp;pressure;altitude;pressure_sealevel;temperature;humidity
7662;BME280;30314;48.184;11.510;2023-02-21T00:01:37;96385.16;;;5.12;80.59
7662;BME280;30314;48.184;11.510;2023-02-21T00:04:37;96391.53;;;5.16;80.86
7662;BME280;30314;48.184;11.510;2023-02-21T00:07:22;96400.28;;;5.22;80.72
7662;BME280;30314;48.184;11.510;2023-02-21T00:10:08;96395.50;;;5.19;80.51
7662;BME280;30314;48.184;11.510;2023-02-21T00:12:53;96380.25;;;4.99;82.20
7662;BME280;30314;48.184;11.510;2023-02-21T00:15:38;96383.13;;;4.97;82.51
7662;BME280;30314;48.184;11.510;2023-02-21T00:18:24;96379.38;;;4.93;82.67
7662;BME280;30314;48.184;11.510;2023-02-21T00:21:08;96376.75;;;4.93;83.12
7662;BME280;30314;48.184;11.510;2023-02-21T00:23:54;96386.44;;;4.92;83.07
7662;BME280;30314;48.184;11.510;2023-02-21T00:26:38;96370.97;;;4.91;82.87
7662;BME280;30314;48.184;11.510;2023-02-21T00:29:25;96382.31;;;4.97;83.83
7662;BME280;30314;48.184;11.510;2023-02-21T00:32:10;96387.31;;;4.98;83.06
7662;BME280;30314;48.184;11.510;2023-02-21T00:34:55;96390.31;;;4.90;83.38
7662;BME280;30314;48.184;11.510;2023-02-21T00:37:40;96378.53;;;4.75;84.03
7662;BME280;30314;48.184;11.510;2023-02-21T00:40:25;96370.63;;;4.70;84.29
7662;BME280;30314;48.184;11.510;2023-02-21T00:43:10;96387.75;;;4.78;84.53
7662;BME280;30314;48.184;11.510;2023-02-21T00:45:56;96383.88;;;4.81;84.51
7662;BME280;30314;48.184;11.510;2023-02-21T00:48:41;96364.59;;;4.70;84.28
7662;BME280;30314;48.184;11.510;2023-02-21T00:51:27;96357.34;;;4.60;84.82
7662;BME280;30314;48.184;11.510;2023-02-21T00:54:12;96374.72;;;4.66;85.15
7662;BME280;30314;48.184;11.510;2023-02-21T00:56:57;96362.94;;;4.51;85.85
7662;BME280;30314;48.184;11.510;2023-02-21T00:59:42;96371.34;;;4.54;86.13
7662;BME280;30314;48.184;11.510;2023-02-21T01:02:27;96374.69;;;4.49;86.05
7662;BME280;30314;48.184;11.510;2023-02-21T01:05:12;96360.72;;;4.43;86.53
7662;BME280;30314;48.184;11.510;2023-02-21T01:07:57;96363.91;;;4.45;86.43
7662;BME280;30314;48.184;11.510;2023-02-21T01:10:42;96361.84;;;4.47;86.88
7662;BME280;30314;48.184;11.510;2023-02-21T01:13:27;96364.41;;;4.30;87.09
7662;BME280;30314;48.184;11.510;2023-02-21T01:16:16;96353.72;;;4.32;87.88
7662;BME280;30314;48.184;11.510;2023-02-21T01:19:01;96363.63;;;4.30;87.87
7662;BME280;30314;48.184;11.510;2023-02-21T01:21:48;96358.81;;;4.27;88.67
7662;BME280;30314;48.184;11.510;2023-02-21T01:24:33;96354.31;;;4.22;89.42
7662;BME280;30314;48.184;11.510;2023-02-21T01:27:18;96345.31;;;4.30;89.59
7662;BME280;30314;48.184;11.510;2023-02-21T01:30:03;96351.88;;;4.32;89.76
7662;BME280;30314;48.184;11.510;2023-02-21T01:32:49;96339.41;;;4.22;89.85
7662;BME280;30314;48.184;11.510;2023-02-21T01:35:34;96341.25;;;4.10;91.56
7662;BME280;30314;48.184;11.510;2023-02-21T01:38:20;96337.28;;;4.07;91.75
7662;BME280;30314;48.184;11.510;2023-02-21T01:41:05;96327.16;;;4.23;91.50
7662;BME280;30314;48.184;11.510;2023-02-21T01:44:28;96340.09;;;4.30;91.88
7662;BME280;30314;48.184;11.510;2023-02-21T01:47:14;96345.81;;;4.15;92.67
7662;BME280;30314;48.184;11.510;2023-02-21T01:50:01;96355.69;;;4.13;94.42
7662;BME280;30314;48.184;11.510;2023-02-21T01:52:48;96328.47;;;3.97;94.65
7662;BME280;30314;48.184;11.510;2023-02-21T01:55:36;96333.81;;;4.02;94.32
7662;BME280;30314;48.184;11.510;2023-02-21T01:58:24;96332.31;;;4.06;93.64
7662;BME280;30314;48.184;11.510;2023-02-21T02:01:17;96317.66;;;4.05;94.36
7662;BME280;30314;48.184;11.510;2023-02-21T02:04:04;96316.72;;;4.11;94.31
7662;BME280;30314;48.184;11.510;2023-02-21T02:06:50;96314.84;;;3.94;95.03
7662;BME280;30314;48.184;11.510;2023-02-21T02:09:35;96319.25;;;4.06;95.31
7662;BME280;30314;48.184;11.510;2023-02-21T02:12:33;96298.72;;;3.86;96.03
7662;BME280;30314;48.184;11.510;2023-02-21T02:31:41;96327.91;;;3.94;97.31
7662;BME280;30314;48.184;11.510;2023-02-21T02:37:16;96300.94;;;3.53;97.66
7662;BME280;30314;48.184;11.510;2023-02-21T02:39:47;96318.41;;;3.52;98.20
7662;BME280;30314;48.184;11.510;2023-02-21T02:42:39;96314.00;;;3.41;99.12
7662;BME280;30314;48.184;11.510;2023-02-21T02:45:30;96312.22;;;3.30;99.99
7662;BME280;30314;48.184;11.510;2023-02-21T02:48:06;96312.63;;;3.27;100.00
7662;BME280;30314;48.184;11.510;2023-02-21T02:50:36;96306.97;;;3.18;100.00
7662;BME280;30314;48.184;11.510;2023-02-21T02:53:05;96299.91;;;3.06;100.00
7662;BME280;30314;48.184;11.510;2023-02-21T02:55:40;96290.84;;;2.97;100.00
7662;BME280;30314;48.184;11.510;2023-02-21T02:58:10;96305.91;;;2.95;100.00
7662;BME280;30314;48.184;11.510;2023-02-21T03:00:41;96310.72;;;2.98;100.00
7662;BME280;30314;48.184;11.510;2023-02-21T03:06:29;96306.38;;;2.92;100.00
7662;BME280;30314;48.184;11.510;2023-02-21T03:09:10;96304.91;;;2.84;100.00
7662;BME280;30314;48.184;11.510;2023-02-21T03:11:47;96307.03;;;2.87;100.00
7662;BME280;30314;48.184;11.510;2023-02-21T03:14:17;96313.28;;;2.86;100.00
7662;BME280;30314;48.184;11.510;2023-02-21T03:16:54;96309.34;;;2.84;100.00
7662;BME280;30314;48.184;11.510;2023-02-21T03:19:29;96296.41;;;2.77;100.00
7662;BME280;30314;48.184;11.510;2023-02-21T03:21:59;96290.38;;;2.76;100.00
7662;BME280;30314;48.184;11.510;2023-02-21T03:24:27;96283.56;;;2.75;100.00
7662;BME280;30314;48.184;11.510;2023-02-21T03:26:59;96295.91;;;2.68;100.00
7662;BME280;30314;48.184;11.510;2023-02-21T03:30:00;96311.91;;;2.72;100.00
7662;BME280;30314;48.184;11.510;2023-02-21T03:32:35;96300.88;;;2.58;100.00
7662;BME280;30314;48.184;11.510;2023-02-21T03:35:04;96321.97;;;2.68;100.00
7662;BME280;30314;48.184;11.510;2023-02-21T03:37:41;96309.63;;;2.63;100.00
7662;BME280;30314;48.184;11.510;2023-02-21T03:40:12;96305.88;;;2.59;100.00
7662;BME280;30314;48.184;11.510;2023-02-21T03:42:38;96297.00;;;2.48;100.00
7662;BME280;30314;48.184;11.510;2023-02-21T03:45:06;96301.75;;;2.51;100.00
7662;BME280;30314;48.184;11.510;2023-02-21T03:47:32;96306.41;;;2.49;100.00
7662;BME280;30314;48.184;11.510;2023-02-21T03:50:00;96296.53;;;2.51;100.00
7662;BME280;30314;48.184;11.510;2023-02-21T03:52:27;96286.78;;;2.47;100.00
7662;BME280;30314;48.184;11.510;2023-02-21T03:54:54;96289.47;;;2.40;100.00
7662;BME280;30314;48.184;11.510;2023-02-21T03:57:23;96315.19;;;2.67;100.00
7662;BME280;30314;48.184;11.510;2023-02-21T03:59:51;96303.34;;;2.52;100.00
7662;BME280;30314;48.184;11.510;2023-02-21T04:02:17;96308.22;;;2.49;100.00
7662;BME280;30314;48.184;11.510;2023-02-21T04:04:45;96298.59;;;2.49;100.00
7662;BME280;30314;48.184;11.510;2023-02-21T04:07:17;96300.97;;;2.51;100.00
7662;BME280;30314;48.184;11.510;2023-02-21T04:09:46;96295.97;;;2.37;100.00
7662;BME280;30314;48.184;11.510;2023-02-21T04:12:19;96290.94;;;2.36;100.00
7662;BME280;30314;48.184;11.510;2023-02-21T04:14:46;96295.16;;;2.37;100.00
7662;BME280;30314;48.184;11.510;2023-02-21T04:17:12;96308.31;;;2.42;100.00
7662;BME280;30314;48.184;11.510;2023-02-21T04:19:39;96291.75;;;2.36;100.00
7662;BME280;30314;48.184;11.510;2023-02-21T04:22:05;96290.84;;;2.31;100.00
7662;BME280;30314;48.184;11.510;2023-02-21T04:24:33;96295.97;;;2.37;100.00
7662;BME280;30314;48.184;11.510;2023-02-21T04:27:00;96309.47;;;2.46;100.00
7662;BME280;30314;48.184;11.510;2023-02-21T04:29:31;96290.03;;;2.30;100.00
7662;BME280;30314;48.184;11.510;2023-02-21T04:32:00;96289.00;;;2.31;100.00
7662;BME280;30314;48.184;11.510;2023-02-21T04:34:29;96282.66;;;2.27;100.00
7662;BME280;30314;48.184;11.510;2023-02-21T04:36:56;96292.50;;;2.25;100.00
7662;BME280;30314;48.184;11.510;2023-02-21T04:39:23;96252.78;;;2.11;100.00
7662;BME280;30314;48.184;11.510;2023-02-21T04:41:49;96278.13;;;2.34;100.00
7662;BME280;30314;48.184;11.510;2023-02-21T04:44:16;96286.19;;;2.33;100.00
7662;BME280;30314;48.184;11.510;2023-02-21T04:46:43;96274.56;;;2.17;100.00
7662;BME280;30314;48.184;11.510;2023-02-21T04:49:13;96267.78;;;2.28;100.00
7662;BME280;30314;48.184;11.510;2023-02-21T04:51:40;96276.78;;;2.32;100.00
7662;BME280;30314;48.184;11.510;2023-02-21T04:54:06;96256.59;;;2.27;100.00
7662;BME280;30314;48.184;11.510;2023-02-21T04:56:33;96270.00;;;2.43;100.00
7662;BME280;30314;48.184;11.510;2023-02-21T04:58:59;96277.63;;;2.44;100.00
7662;BME280;30314;48.184;11.510;2023-02-21T05:01:27;96291.78;;;2.48;100.00
7662;BME280;30314;48.184;11.510;2023-02-21T05:03:57;96272.88;;;2.53;100.00
7662;BME280;30314;48.184;11.510;2023-02-21T05:06:26;96278.09;;;2.53;100.00
7662;BME280;30314;48.184;11.510;2023-02-21T05:08:53;96271.13;;;2.47;100.00
7662;BME280;30314;48.184;11.510;2023-02-21T05:11:20;96288.78;;;2.63;100.00
7662;BME280;30314;48.184;11.510;2023-02-21T05:13:47;96284.91;;;2.66;100.00
7662;BME280;30314;48.184;11.510;2023-02-21T05:16:14;96280.59;;;2.60;100.00
7662;BME280;30314;48.184;11.510;2023-02-21T05:18:41;96276.06;;;2.67;100.00
7662;BME280;30314;48.184;11.510;2023-02-21T05:21:08;96255.97;;;2.56;100.00
7662;BME280;30314;48.184;11.510;2023-02-21T05:23:35;96238.16;;;2.52;100.00
7662;BME280;30314;48.184;11.510;2023-02-21T05:26:07;96273.25;;;2.80;100.00
7662;BME280;30314;48.184;11.510;2023-02-21T05:28:35;96269.84;;;2.80;100.00
7662;BME280;30314;48.184;11.510;2023-02-21T05:31:02;96271.66;;;2.79;100.00
7662;BME280;30314;48.184;11.510;2023-02-21T05:33:29;96253.59;;;2.66;100.00
7662;BME280;30314;48.184;11.510;2023-02-21T05:35:56;96246.25;;;2.63;100.00
7662;BME280;30314;48.184;11.510;2023-02-21T05:38:23;96211.94;;;2.35;100.00
7662;BME280;30314;48.184;11.510;2023-02-21T05:40:50;96255.19;;;2.67;100.00
7662;BME280;30314;48.184;11.510;2023-02-21T05:43:17;96226.41;;;2.50;100.00
7662;BME280;30314;48.184;11.510;2023-02-21T05:45:43;96261.00;;;2.81;100.00
7662;BME280;30314;48.184;11.510;2023-02-21T05:48:10;96257.69;;;2.74;100.00
7662;BME280;30314;48.184;11.510;2023-02-21T05:50:37;96239.78;;;2.65;100.00
7662;BME280;30314;48.184;11.510;2023-02-21T05:53:05;96266.22;;;2.81;100.00
7662;BME280;30314;48.184;11.510;2023-02-21T05:55:32;96250.56;;;2.69;100.00
7662;BME280;30314;48.184;11.510;2023-02-21T05:57:58;96241.13;;;2.68;100.00
7662;BME280;30314;48.184;11.510;2023-02-21T06:00:27;96233.66;;;2.60;100.00
7662;BME280;30314;48.184;11.510;2023-02-21T06:02:55;96265.41;;;2.80;100.00
7662;BME280;30314;48.184;11.510;2023-02-21T06:05:22;96263.06;;;2.79;100.00
7662;BME280;30314;48.184;11.510;2023-02-21T06:07:49;96243.97;;;2.66;100.00
7662;BME280;30314;48.184;11.510;2023-02-21T06:10:18;96266.56;;;2.85;100.00
7662;BME280;30314;48.184;11.510;2023-02-21T06:12:44;96250.47;;;2.76;100.00
7662;BME280;30314;48.184;11.510;2023-02-21T06:15:11;96262.81;;;2.80;100.00
7662;BME280;30314;48.184;11.510;2023-02-21T06:17:39;96269.84;;;2.92;100.00
7662;BME280;30314;48.184;11.510;2023-02-21T06:20:08;96260.78;;;2.83;100.00
7662;BME280;30314;48.184;11.510;2023-02-21T06:22:35;96241.59;;;2.65;100.00
7662;BME280;30314;48.184;11.510;2023-02-21T06:25:02;96259.19;;;2.81;100.00
7662;BME280;30314;48.184;11.510;2023-02-21T06:27:29;96276.56;;;2.88;100.00
7662;BME280;30314;48.184;11.510;2023-02-21T06:29:55;96269.75;;;2.87;100.00
7662;BME280;30314;48.184;11.510;2023-02-21T06:32:22;96253.53;;;2.85;100.00
7662;BME280;30314;48.184;11.510;2023-02-21T06:34:48;96270.31;;;2.89;100.00
7662;BME280;30314;48.184;11.510;2023-02-21T06:37:17;96262.25;;;2.78;100.00
7662;BME280;30314;48.184;11.510;2023-02-21T06:39:43;96294.25;;;2.98;100.00
7662;BME280;30314;48.184;11.510;2023-02-21T06:42:14;96293.91;;;2.94;100.00
7662;BME280;30314;48.184;11.510;2023-02-21T06:44:45;96282.69;;;2.93;100.00
7662;BME280;30314;48.184;11.510;2023-02-21T06:47:13;96277.91;;;2.90;100.00
7662;BME280;30314;48.184;11.510;2023-02-21T06:49:40;96285.50;;;2.92;100.00
7662;BME280;30314;48.184;11.510;2023-02-21T06:52:10;96253.03;;;2.64;100.00
7662;BME280;30314;48.184;11.510;2023-02-21T06:54:37;96306.63;;;3.02;100.00
7662;BME280;30314;48.184;11.510;2023-02-21T06:57:03;96307.06;;;2.99;100.00
7662;BME280;30314;48.184;11.510;2023-02-21T06:59:31;96264.59;;;2.68;100.00
7662;BME280;30314;48.184;11.510;2023-02-21T07:02:00;96318.19;;;2.94;100.00
7662;BME280;30314;48.184;11.510;2023-02-21T07:04:28;96264.72;;;2.61;100.00
7662;BME280;30314;48.184;11.510;2023-02-21T07:06:54;96299.22;;;2.87;100.00
7662;BME280;30314;48.184;11.510;2023-02-21T07:09:21;96274.16;;;2.74;100.00
7662;BME280;30314;48.184;11.510;2023-02-21T07:11:47;96319.66;;;3.02;100.00
7662;BME280;30314;48.184;11.510;2023-02-21T07:14:14;96316.03;;;3.03;100.00
7662;BME280;30314;48.184;11.510;2023-02-21T07:16:40;96299.34;;;2.92;100.00
7662;BME280;30314;48.184;11.510;2023-02-21T07:19:07;96322.53;;;3.13;100.00
7662;BME280;30314;48.184;11.510;2023-02-21T07:21:34;96310.50;;;3.12;100.00
7662;BME280;30314;48.184;11.510;2023-02-21T07:24:02;96315.34;;;3.20;100.00
7662;BME280;30314;48.184;11.510;2023-02-21T07:26:32;96275.19;;;3.09;100.00
7662;BME280;30314;48.184;11.510;2023-02-21T07:28:58;96313.22;;;3.41;100.00
7662;BME280;30314;48.184;11.510;2023-02-21T07:31:25;96301.75;;;3.42;100.00
7662;BME280;30314;48.184;11.510;2023-02-21T07:33:52;96314.66;;;3.60;100.00
7662;BME280;30314;48.184;11.510;2023-02-21T07:36:18;96304.47;;;3.59;100.00
7662;BME280;30314;48.184;11.510;2023-02-21T07:38:45;96302.16;;;3.74;100.00
7662;BME280;30314;48.184;11.510;2023-02-21T07:41:13;96311.53;;;3.87;100.00
7662;BME280;30314;48.184;11.510;2023-02-21T07:43:41;96313.81;;;3.96;100.00
7662;BME280;30314;48.184;11.510;2023-02-21T07:46:12;96299.84;;;3.90;100.00
7662;BME280;30314;48.184;11.510;2023-02-21T07:48:39;96313.06;;;4.12;100.00
7662;BME280;30314;48.184;11.510;2023-02-21T07:51:06;96317.09;;;4.32;100.00
7662;BME280;30314;48.184;11.510;2023-02-21T07:53:33;96324.09;;;4.43;100.00
7662;BME280;30314;48.184;11.510;2023-02-21T07:56:01;96301.41;;;4.32;100.00
7662;BME280;30314;48.184;11.510;2023-02-21T07:58:28;96300.00;;;4.41;100.00
7662;BME280;30314;48.184;11.510;2023-02-21T08:00:54;96294.38;;;4.49;100.00
7662;BME280;30314;48.184;11.510;2023-02-21T08:03:21;96317.56;;;4.92;100.00
7662;BME280;30314;48.184;11.510;2023-02-21T08:05:49;96313.00;;;4.99;100.00
7662;BME280;30314;48.184;11.510;2023-02-21T08:08:15;96268.81;;;4.86;100.00
7662;BME280;30314;48.184;11.510;2023-02-21T08:10:42;96336.53;;;5.33;100.00
7662;BME280;30314;48.184;11.510;2023-02-21T08:13:09;96317.31;;;5.28;100.00
7662;BME280;30314;48.184;11.510;2023-02-21T08:15:35;96331.44;;;5.44;100.00
7662;BME280;30314;48.184;11.510;2023-02-21T08:18:01;96327.94;;;5.55;100.00
7662;BME280;30314;48.184;11.510;2023-02-21T08:20:28;96319.13;;;5.61;98.59
7662;BME280;30314;48.184;11.510;2023-02-21T08:22:54;96326.13;;;5.78;99.39
7662;BME280;30314;48.184;11.510;2023-02-21T08:25:21;96336.84;;;5.99;97.91
7662;BME280;30314;48.184;11.510;2023-02-21T08:27:47;96345.66;;;6.32;96.90
7662;BME280;30314;48.184;11.510;2023-02-21T08:30:18;96321.56;;;6.40;95.57
7662;BME280;30314;48.184;11.510;2023-02-21T08:32:45;96314.47;;;6.63;91.29
7662;BME280;30314;48.184;11.510;2023-02-21T08:35:18;96333.56;;;6.81;92.54
7662;BME280;30314;48.184;11.510;2023-02-21T08:37:46;96341.81;;;6.95;92.88
7662;BME280;30314;48.184;11.510;2023-02-21T08:40:13;96339.00;;;7.07;89.94
7662;BME280;30314;48.184;11.510;2023-02-21T08:42:41;96290.53;;;6.87;89.18
7662;BME280;30314;48.184;11.510;2023-02-21T08:45:14;96342.31;;;7.24;88.68
7662;BME280;30314;48.184;11.510;2023-02-21T08:47:42;96324.41;;;7.21;88.00
7662;BME280;30314;48.184;11.510;2023-02-21T08:50:08;96327.72;;;7.44;84.77
7662;BME280;30314;48.184;11.510;2023-02-21T08:52:35;96320.19;;;7.63;84.90
7662;BME280;30314;48.184;11.510;2023-02-21T08:55:02;96344.22;;;7.77;86.91
7662;BME280;30314;48.184;11.510;2023-02-21T08:57:28;96326.91;;;7.92;85.89
7662;BME280;30314;48.184;11.510;2023-02-21T08:59:55;96324.28;;;7.97;82.21
7662;BME280;30314;48.184;11.510;2023-02-21T09:02:23;96329.13;;;8.26;82.70
7662;BME280;30314;48.184;11.510;2023-02-21T09:04:51;96314.09;;;8.16;82.68
7662;BME280;30314;48.184;11.510;2023-02-21T09:07:20;96342.34;;;8.46;79.61
7662;BME280;30314;48.184;11.510;2023-02-21T09:09:47;96332.41;;;8.69;79.59
7662;BME280;30314;48.184;11.510;2023-02-21T09:12:13;96317.63;;;8.53;75.95
7662;BME280;30314;48.184;11.510;2023-02-21T09:14:42;96330.81;;;8.63;74.91
7662;BME280;30314;48.184;11.510;2023-02-21T09:17:11;96330.56;;;8.75;73.75
7662;BME280;30314;48.184;11.510;2023-02-21T09:19:38;96328.19;;;8.79;73.21
7662;BME280;30314;48.184;11.510;2023-02-21T09:22:07;96329.25;;;8.83;74.28
7662;BME280;30314;48.184;11.510;2023-02-21T09:24:34;96333.50;;;8.94;71.39
7662;BME280;30314;48.184;11.510;2023-02-21T09:27:00;96322.16;;;8.94;68.93
7662;BME280;30314;48.184;11.510;2023-02-21T09:29:31;96331.91;;;9.09;68.97
7662;BME280;30314;48.184;11.510;2023-02-21T09:32:10;96335.63;;;9.34;67.08
7662;BME280;30314;48.184;11.510;2023-02-21T09:34:37;96310.31;;;9.22;66.97
7662;BME280;30314;48.184;11.510;2023-02-21T09:37:04;96325.59;;;9.36;66.11
7662;BME280;30314;48.184;11.510;2023-02-21T09:39:31;96326.09;;;9.53;63.91
7662;BME280;30314;48.184;11.510;2023-02-21T09:41:57;96311.88;;;9.39;65.17
7662;BME280;30314;48.184;11.510;2023-02-21T09:44:26;96290.53;;;9.40;65.36
7662;BME280;30314;48.184;11.510;2023-02-21T09:47:04;96317.34;;;9.68;66.71
7662;BME280;30314;48.184;11.510;2023-02-21T09:49:37;96314.16;;;9.77;64.04
7662;BME280;30314;48.184;11.510;2023-02-21T09:52:04;96307.72;;;10.04;60.80
7662;BME280;30314;48.184;11.510;2023-02-21T09:54:36;96319.03;;;10.14;62.91
7662;BME280;30314;48.184;11.510;2023-02-21T09:57:05;96323.66;;;10.38;61.38
7662;BME280;30314;48.184;11.510;2023-02-21T09:59:36;96317.19;;;10.65;59.05
7662;BME280;30314;48.184;11.510;2023-02-21T10:02:23;96301.69;;;10.48;59.16
7662;BME280;30314;48.184;11.510;2023-02-21T10:05:29;96313.59;;;10.46;59.35
7662;BME280;30314;48.184;11.510;2023-02-21T10:10:46;96309.69;;;10.78;58.47
7662;BME280;30314;48.184;11.510;2023-02-21T10:16:16;96318.94;;;11.15;56.97
7662;BME280;30314;48.184;11.510;2023-02-21T10:19:04;96317.78;;;11.26;55.98
7662;BME280;30314;48.184;11.510;2023-02-21T10:21:37;96314.63;;;11.24;55.30
7662;BME280;30314;48.184;11.510;2023-02-21T10:24:15;96323.97;;;11.46;54.38
7662;BME280;30314;48.184;11.510;2023-02-21T10:26:47;96310.34;;;11.28;55.90
7662;BME280;30314;48.184;11.510;2023-02-21T10:29:27;96315.91;;;11.56;55.67
7662;BME280;30314;48.184;11.510;2023-02-21T10:32:00;96327.03;;;11.59;54.72
7662;BME280;30314;48.184;11.510;2023-02-21T10:34:30;96325.94;;;11.60;54.64
7662;BME280;30314;48.184;11.510;2023-02-21T10:37:09;96326.78;;;11.79;54.07
7662;BME280;30314;48.184;11.510;2023-02-21T10:39:43;96331.91;;;11.95;53.91
7662;BME280;30314;48.184;11.510;2023-02-21T10:42:17;96315.88;;;11.86;52.56
7662;BME280;30314;48.184;11.510;2023-02-21T10:44:47;96311.34;;;12.11;52.18
7662;BME280;30314;48.184;11.510;2023-02-21T10:47:22;96319.75;;;12.37;52.89
7662;BME280;30314;48.184;11.510;2023-02-21T10:50:04;96314.31;;;12.48;52.79
7662;BME280;30314;48.184;11.510;2023-02-21T10:52:47;96312.25;;;12.64;51.70
7662;BME280;30314;48.184;11.510;2023-02-21T10:55:20;96314.91;;;12.83;53.05
7662;BME280;30314;48.184;11.510;2023-02-21T10:58:07;96302.06;;;12.90;51.22
7662;BME280;30314;48.184;11.510;2023-02-21T11:00:37;96280.34;;;12.88;51.30
7662;BME280;30314;48.184;11.510;2023-02-21T11:03:24;96306.63;;;13.04;51.20
7662;BME280;30314;48.184;11.510;2023-02-21T11:05:54;96304.88;;;13.13;51.50
7662;BME280;30314;48.184;11.510;2023-02-21T11:11:00;96281.72;;;13.19;51.20
7662;BME280;30314;48.184;11.510;2023-02-21T11:13:28;96275.81;;;13.08;50.39
7662;BME280;30314;48.184;11.510;2023-02-21T11:16:10;96292.03;;;13.20;49.49
7662;BME280;30314;48.184;11.510;2023-02-21T11:18:37;96273.69;;;13.38;53.00
7662;BME280;30314;48.184;11.510;2023-02-21T11:21:17;96281.38;;;13.53;48.40
7662;BME280;30314;48.184;11.510;2023-02-21T11:26:13;96257.56;;;13.34;46.00
7662;BME280;30314;48.184;11.510;2023-02-21T11:28:44;96258.09;;;13.50;49.71
7662;BME280;30314;48.184;11.510;2023-02-21T11:31:26;96242.66;;;13.66;48.63
7662;BME280;30314;48.184;11.510;2023-02-21T11:33:59;96256.22;;;13.79;47.64
7662;BME280;30314;48.184;11.510;2023-02-21T11:36:38;96254.38;;;13.65;47.56
7662;BME280;30314;48.184;11.510;2023-02-21T11:39:22;96242.66;;;13.52;47.77
7662;BME280;30314;48.184;11.510;2023-02-21T11:41:55;96247.28;;;13.61;48.32
7662;BME280;30314;48.184;11.510;2023-02-21T11:44:39;96250.63;;;13.52;47.59
7662;BME280;30314;48.184;11.510;2023-02-21T11:50:00;96223.00;;;13.53;48.69
7662;BME280;30314;48.184;11.510;2023-02-21T11:52:45;96226.44;;;13.68;47.36
7662;BME280;30314;48.184;11.510;2023-02-21T11:55:16;96237.03;;;13.68;46.62
7662;BME280;30314;48.184;11.510;2023-02-21T12:00:42;96211.50;;;13.58;46.25
7662;BME280;30314;48.184;11.510;2023-02-21T12:08:37;96216.69;;;13.77;47.66
7662;BME280;30314;48.184;11.510;2023-02-21T12:11:19;96211.59;;;13.67;46.35
7662;BME280;30314;48.184;11.510;2023-02-21T12:16:45;96196.78;;;13.52;47.97
7662;BME280;30314;48.184;11.510;2023-02-21T12:19:38;96202.47;;;13.45;48.58
7662;BME280;30314;48.184;11.510;2023-02-21T12:30:43;96183.41;;;13.57;47.08
7662;BME280;30314;48.184;11.510;2023-02-21T12:36:09;96183.59;;;13.47;47.75
7662;BME280;30314;48.184;11.510;2023-02-21T12:38:51;96179.69;;;13.30;48.06
7662;BME280;30314;48.184;11.510;2023-02-21T12:41:30;96177.53;;;13.18;48.33
7662;BME280;30314;48.184;11.510;2023-02-21T12:49:54;96148.34;;;13.18;47.85
7662;BME280;30314;48.184;11.510;2023-02-21T12:55:03;96152.06;;;13.17;49.06
7662;BME280;30314;48.184;11.510;2023-02-21T13:02:57;96132.03;;;12.83;49.92
7662;BME280;30314;48.184;11.510;2023-02-21T13:05:35;96143.72;;;13.10;50.62
7662;BME280;30314;48.184;11.510;2023-02-21T13:08:51;96117.34;;;13.56;48.31
7662;BME280;30314;48.184;11.510;2023-02-21T13:11:26;96128.75;;;13.56;47.52
7662;BME280;30314;48.184;11.510;2023-02-21T13:13:55;96113.84;;;13.32;47.73
7662;BME280;30314;48.184;11.510;2023-02-21T13:16:23;96109.63;;;13.17;48.77
7662;BME280;30314;48.184;11.510;2023-02-21T13:18:54;96109.53;;;13.08;48.36
7662;BME280;30314;48.184;11.510;2023-02-21T13:25:06;96094.03;;;13.02;49.36
7662;BME280;30314;48.184;11.510;2023-02-21T13:32:58;96094.03;;;13.02;50.00
7662;BME280;30314;48.184;11.510;2023-02-21T13:37:59;96077.94;;;12.98;50.32
7662;BME280;30314;48.184;11.510;2023-02-21T13:40:41;96084.22;;;13.02;49.06
7662;BME280;30314;48.184;11.510;2023-02-21T13:43:12;96064.00;;;12.92;49.13
7662;BME280;30314;48.184;11.510;2023-02-21T13:45:41;96060.28;;;12.93;49.04
7662;BME280;30314;48.184;11.510;2023-02-21T13:55:35;96050.91;;;13.61;48.64
7662;BME280;30314;48.184;11.510;2023-02-21T14:08:30;96050.59;;;13.25;49.67
7662;BME280;30314;48.184;11.510;2023-02-21T14:13:44;96027.06;;;13.10;50.36
7662;BME280;30314;48.184;11.510;2023-02-21T14:18:43;96036.78;;;13.01;50.10
7662;BME280;30314;48.184;11.510;2023-02-21T14:21:28;96036.09;;;13.09;49.91
7662;BME280;30314;48.184;11.510;2023-02-21T14:26:41;96020.88;;;13.15;50.10
7662;BME280;30314;48.184;11.510;2023-02-21T14:34:39;96022.25;;;13.12;49.93
7662;BME280;30314;48.184;11.510;2023-02-21T14:37:15;96022.03;;;13.08;50.47
7662;BME280;30314;48.184;11.510;2023-02-21T14:39:46;96016.25;;;13.20;50.62
7662;BME280;30314;48.184;11.510;2023-02-21T14:53:45;96000.94;;;13.03;51.27
7662;BME280;30314;48.184;11.510;2023-02-21T14:56:39;95985.13;;;13.12;50.88
7662;BME280;30314;48.184;11.510;2023-02-21T14:59:30;95955.91;;;12.89;51.30
7662;BME280;30314;48.184;11.510;2023-02-21T15:02:35;95976.41;;;13.12;50.31
7662;BME280;30314;48.184;11.510;2023-02-21T15:05:16;95985.66;;;13.37;50.00
7662;BME280;30314;48.184;11.510;2023-02-21T15:08:00;95987.63;;;13.31;49.65
7662;BME280;30314;48.184;11.510;2023-02-21T15:10:40;95979.69;;;13.17;50.34
7662;BME280;30314;48.184;11.510;2023-02-21T15:13:29;95977.03;;;13.17;51.31
7662;BME280;30314;48.184;11.510;2023-02-21T15:16:05;95962.28;;;13.02;50.90
7662;BME280;30314;48.184;11.510;2023-02-21T15:18:37;95977.16;;;13.12;51.73
7662;BME280;30314;48.184;11.510;2023-02-21T15:21:10;95944.22;;;12.90;51.64
7662;BME280;30314;48.184;11.510;2023-02-21T15:23:43;95965.22;;;13.01;51.52
7662;BME280;30314;48.184;11.510;2023-02-21T15:29:10;95948.28;;;12.88;51.25
7662;BME280;30314;48.184;11.510;2023-02-21T15:31:44;95960.22;;;12.99;51.35
7662;BME280;30314;48.184;11.510;2023-02-21T15:34:26;95954.25;;;12.93;51.50
7662;BME280;30314;48.184;11.510;2023-02-21T15:37:04;95946.09;;;12.90;52.62
7662;BME280;30314;48.184;11.510;2023-02-21T15:39:38;95954.25;;;12.93;51.79
7662;BME280;30314;48.184;11.510;2023-02-21T15:42:07;95955.81;;;12.94;51.83
7662;BME280;30314;48.184;11.510;2023-02-21T15:44:36;95951.81;;;12.83;52.53
7662;BME280;30314;48.184;11.510;2023-02-21T15:47:14;95938.25;;;12.71;52.39